sensor_id;sensor_type;location;lat;lon;timestamp;P1;durP1;ratioP1;P2;durP2;ratioP2
9102;SDS011;4587;51.434;6.788;2022-12-07T00:01:32;15.00;;;13.50;;
9102;SDS011;4587;51.434;6.788;2022-12-07T00:04:05;15.30;;;13.50;;
9102;SDS011;4587;51.434;6.788;2022-12-07T00:06:43;19.20;;;14.43;;
9102;SDS011;4587;51.434;6.788;2022-12-07T00:09:11;15.87;;;14.17;;
9102;SDS011;4587;51.434;6.788;2022-12-07T00:11:41;17.60;;;15.70;;
9102;SDS011;4587;51.434;6.788;2022-12-07T00:14:07;15.13;;;12.83;;
9102;SDS011;4587;51.434;6.788;2022-12-07T00:16:37;17.70;;;13.23;;
9102;SDS011;4587;51.434;6.788;2022-12-07T00:19:03;16.60;;;14.90;;
9102;SDS011;4587;51.434;6.788;2022-12-07T00:21:30;17.70;;;15.80;;
9102;SDS011;4587;51.434;6.788;2022-12-07T00:23:57;16.00;;;13.90;;
9102;SDS011;4587;51.434;6.788;2022-12-07T00:26:24;16.73;;;14.97;;
9102;SDS011;4587;51.434;6.788;2022-12-07T00:28:52;15.43;;;13.83;;
9102;SDS011;4587;51.434;6.788;2022-12-07T00:31:20;15.67;;;13.53;;
9102;SDS011;4587;51.434;6.788;2022-12-07T00:33:48;16.00;;;14.30;;
9102;SDS011;4587;51.434;6.788;2022-12-07T00:36:15;17.17;;;14.53;;
9102;SDS011;4587;51.434;6.788;2022-12-07T00:38:43;15.37;;;13.87;;
9102;SDS011;4587;51.434;6.788;2022-12-07T00:41:13;17.07;;;14.30;;
9102;SDS011;4587;51.434;6.788;2022-12-07T00:43:43;15.83;;;14.20;;
9102;SDS011;4587;51.434;6.788;2022-12-07T00:46:10;16.77;;;15.03;;
9102;SDS011;4587;51.434;6.788;2022-12-07T00:48:36;16.33;;;14.60;;
9102;SDS011;4587;51.434;6.788;2022-12-07T00:51:02;17.33;;;15.47;;
9102;SDS011;4587;51.434;6.788;2022-12-07T00:53:28;16.43;;;14.43;;
9102;SDS011;4587;51.434;6.788;2022-12-07T00:55:55;17.73;;;15.03;;
9102;SDS011;4587;51.434;6.788;2022-12-07T00:58:21;16.07;;;14.47;;
9102;SDS011;4587;51.434;6.788;2022-12-07T01:00:47;15.23;;;13.73;;
9102;SDS011;4587;51.434;6.788;2022-12-07T01:03:13;15.77;;;14.10;;
9102;SDS011;4587;51.434;6.788;2022-12-07T01:05:40;17.37;;;13.67;;
9102;SDS011;4587;51.434;6.788;2022-12-07T01:08:14;15.80;;;14.27;;
9102;SDS011;4587;51.434;6.788;2022-12-07T01:10:40;15.87;;;14.20;;
9102;SDS011;4587;51.434;6.788;2022-12-07T01:13:05;16.00;;;13.80;;
9102;SDS011;4587;51.434;6.788;2022-12-07T01:15:31;15.33;;;13.83;;
9102;SDS011;4587;51.434;6.788;2022-12-07T01:17:56;16.87;;;14.03;;
9102;SDS011;4587;51.434;6.788;2022-12-07T01:20:22;17.23;;;14.67;;
9102;SDS011;4587;51.434;6.788;2022-12-07T01:22:48;15.80;;;14.20;;
9102;SDS011;4587;51.434;6.788;2022-12-07T01:25:13;15.70;;;14.10;;
9102;SDS011;4587;51.434;6.788;2022-12-07T01:27:39;16.23;;;14.53;;
9102;SDS011;4587;51.434;6.788;2022-12-07T01:30:05;19.23;;;14.20;;
9102;SDS011;4587;51.434;6.788;2022-12-07T01:32:32;15.63;;;14.00;;
9102;SDS011;4587;51.434;6.788;2022-12-07T01:34:57;16.53;;;14.83;;
9102;SDS011;4587;51.434;6.788;2022-12-07T01:37:23;17.03;;;14.87;;
9102;SDS011;4587;51.434;6.788;2022-12-07T01:39:49;17.27;;;15.10;;
9102;SDS011;4587;51.434;6.788;2022-12-07T01:42:17;15.93;;;14.23;;
9102;SDS011;4587;51.434;6.788;2022-12-07T01:47:43;15.30;;;13.80;;
9102;SDS011;4587;51.434;6.788;2022-12-07T01:50:21;16.20;;;14.47;;
9102;SDS011;4587;51.434;6.788;2022-12-07T01:52:51;16.13;;;14.43;;
9102;SDS011;4587;51.434;6.788;2022-12-07T01:55:20;17.40;;;14.57;;
9102;SDS011;4587;51.434;6.788;2022-12-07T01:57:47;17.00;;;15.30;;
9102;SDS011;4587;51.434;6.788;2022-12-07T02:00:15;19.43;;;13.63;;
9102;SDS011;4587;51.434;6.788;2022-12-07T02:02:43;19.37;;;14.47;;
9102;SDS011;4587;51.434;6.788;2022-12-07T02:05:23;16.13;;;14.40;;
9102;SDS011;4587;51.434;6.788;2022-12-07T02:07:50;15.60;;;14.00;;
9102;SDS011;4587;51.434;6.788;2022-12-07T02:10:18;18.63;;;14.00;;
9102;SDS011;4587;51.434;6.788;2022-12-07T02:12:47;17.77;;;14.17;;
9102;SDS011;4587;51.434;6.788;2022-12-07T02:15:16;16.03;;;14.33;;
9102;SDS011;4587;51.434;6.788;2022-12-07T02:17:48;15.07;;;13.43;;
9102;SDS011;4587;51.434;6.788;2022-12-07T02:21:18;15.27;;;13.60;;
9102;SDS011;4587;51.434;6.788;2022-12-07T02:23:46;16.17;;;14.43;;
9102;SDS011;4587;51.434;6.788;2022-12-07T02:32:09;15.97;;;14.27;;
9102;SDS011;4587;51.434;6.788;2022-12-07T02:34:58;16.70;;;14.73;;
9102;SDS011;4587;51.434;6.788;2022-12-07T02:40:25;15.40;;;13.57;;
9102;SDS011;4587;51.434;6.788;2022-12-07T02:43:04;15.13;;;13.50;;
9102;SDS011;4587;51.434;6.788;2022-12-07T02:45:41;16.03;;;13.63;;
9102;SDS011;4587;51.434;6.788;2022-12-07T02:48:09;17.20;;;13.77;;
9102;SDS011;4587;51.434;6.788;2022-12-07T02:50:38;15.87;;;13.60;;
9102;SDS011;4587;51.434;6.788;2022-12-07T02:53:27;15.13;;;13.53;;
9102;SDS011;4587;51.434;6.788;2022-12-07T02:59:02;14.40;;;13.00;;
9102;SDS011;4587;51.434;6.788;2022-12-07T03:01:58;19.90;;;13.60;;
9102;SDS011;4587;51.434;6.788;2022-12-07T03:04:41;14.87;;;13.37;;
9102;SDS011;4587;51.434;6.788;2022-12-07T03:07:17;15.00;;;13.43;;
9102;SDS011;4587;51.434;6.788;2022-12-07T03:09:45;17.70;;;14.07;;
9102;SDS011;4587;51.434;6.788;2022-12-07T03:12:21;16.30;;;13.57;;
9102;SDS011;4587;51.434;6.788;2022-12-07T03:15:14;17.43;;;14.37;;
9102;SDS011;4587;51.434;6.788;2022-12-07T03:18:02;17.73;;;14.47;;
9102;SDS011;4587;51.434;6.788;2022-12-07T03:20:29;16.20;;;14.50;;
9102;SDS011;4587;51.434;6.788;2022-12-07T03:22:57;17.27;;;14.00;;
9102;SDS011;4587;51.434;6.788;2022-12-07T03:25:24;15.60;;;14.00;;
9102;SDS011;4587;51.434;6.788;2022-12-07T03:27:58;16.20;;;14.40;;
9102;SDS011;4587;51.434;6.788;2022-12-07T03:30:48;16.20;;;13.40;;
9102;SDS011;4587;51.434;6.788;2022-12-07T03:33:22;17.33;;;14.07;;
9102;SDS011;4587;51.434;6.788;2022-12-07T03:35:57;18.30;;;14.63;;
9102;SDS011;4587;51.434;6.788;2022-12-07T03:38:42;16.93;;;14.03;;
9102;SDS011;4587;51.434;6.788;2022-12-07T03:41:22;15.97;;;14.23;;
9102;SDS011;4587;51.434;6.788;2022-12-07T03:43:51;15.77;;;14.10;;
9102;SDS011;4587;51.434;6.788;2022-12-07T03:49:23;18.30;;;14.33;;
9102;SDS011;4587;51.434;6.788;2022-12-07T03:54:41;15.67;;;13.97;;
9102;SDS011;4587;51.434;6.788;2022-12-07T03:57:22;16.50;;;14.77;;
9102;SDS011;4587;51.434;6.788;2022-12-07T03:59:50;16.63;;;14.90;;
9102;SDS011;4587;51.434;6.788;2022-12-07T04:02:16;19.60;;;14.63;;
9102;SDS011;4587;51.434;6.788;2022-12-07T04:04:43;16.60;;;14.20;;
9102;SDS011;4587;51.434;6.788;2022-12-07T04:07:09;17.00;;;14.97;;
9102;SDS011;4587;51.434;6.788;2022-12-07T04:09:35;16.87;;;14.33;;
9102;SDS011;4587;51.434;6.788;2022-12-07T04:12:01;16.63;;;14.53;;
9102;SDS011;4587;51.434;6.788;2022-12-07T04:14:26;16.20;;;13.77;;
9102;SDS011;4587;51.434;6.788;2022-12-07T04:16:56;17.97;;;14.33;;
9102;SDS011;4587;51.434;6.788;2022-12-07T04:19:24;18.83;;;14.00;;
9102;SDS011;4587;51.434;6.788;2022-12-07T04:21:51;18.97;;;14.47;;
9102;SDS011;4587;51.434;6.788;2022-12-07T04:24:17;16.67;;;14.30;;
9102;SDS011;4587;51.434;6.788;2022-12-07T04:26:43;18.53;;;13.53;;
9102;SDS011;4587;51.434;6.788;2022-12-07T04:29:09;17.80;;;13.30;;
9102;SDS011;4587;51.434;6.788;2022-12-07T04:31:36;17.20;;;13.90;;
9102;SDS011;4587;51.434;6.788;2022-12-07T04:34:02;17.03;;;14.13;;
9102;SDS011;4587;51.434;6.788;2022-12-07T04:36:28;18.83;;;13.63;;
9102;SDS011;4587;51.434;6.788;2022-12-07T04:38:54;15.37;;;12.90;;
9102;SDS011;4587;51.434;6.788;2022-12-07T04:41:20;19.33;;;14.53;;
9102;SDS011;4587;51.434;6.788;2022-12-07T04:43:52;16.03;;;14.10;;
9102;SDS011;4587;51.434;6.788;2022-12-07T04:46:19;18.83;;;13.90;;
9102;SDS011;4587;51.434;6.788;2022-12-07T04:48:44;17.13;;;14.13;;
9102;SDS011;4587;51.434;6.788;2022-12-07T04:51:10;18.90;;;14.10;;
9102;SDS011;4587;51.434;6.788;2022-12-07T04:53:36;16.80;;;14.13;;
9102;SDS011;4587;51.434;6.788;2022-12-07T04:56:01;16.47;;;13.80;;
9102;SDS011;4587;51.434;6.788;2022-12-07T04:58:27;16.83;;;13.67;;
9102;SDS011;4587;51.434;6.788;2022-12-07T05:00:55;16.93;;;14.10;;
9102;SDS011;4587;51.434;6.788;2022-12-07T05:03:21;16.47;;;14.00;;
9102;SDS011;4587;51.434;6.788;2022-12-07T05:05:47;19.43;;;13.93;;
9102;SDS011;4587;51.434;6.788;2022-12-07T05:08:12;18.37;;;14.07;;
9102;SDS011;4587;51.434;6.788;2022-12-07T05:10:38;16.07;;;13.77;;
9102;SDS011;4587;51.434;6.788;2022-12-07T05:13:03;17.03;;;13.53;;
9102;SDS011;4587;51.434;6.788;2022-12-07T05:15:29;17.10;;;13.07;;
9102;SDS011;4587;51.434;6.788;2022-12-07T05:17:54;18.33;;;11.57;;
9102;SDS011;4587;51.434;6.788;2022-12-07T05:20:20;18.70;;;12.50;;
9102;SDS011;4587;51.434;6.788;2022-12-07T05:22:45;16.10;;;11.20;;
9102;SDS011;4587;51.434;6.788;2022-12-07T05:25:12;16.87;;;10.93;;
9102;SDS011;4587;51.434;6.788;2022-12-07T05:27:37;14.43;;;11.13;;
9102;SDS011;4587;51.434;6.788;2022-12-07T05:30:03;14.70;;;11.13;;
9102;SDS011;4587;51.434;6.788;2022-12-07T05:32:30;16.40;;;11.63;;
9102;SDS011;4587;51.434;6.788;2022-12-07T05:34:55;14.10;;;10.23;;
9102;SDS011;4587;51.434;6.788;2022-12-07T05:37:21;15.27;;;10.57;;
9102;SDS011;4587;51.434;6.788;2022-12-07T05:39:46;15.00;;;10.77;;
9102;SDS011;4587;51.434;6.788;2022-12-07T05:42:12;15.43;;;10.93;;
9102;SDS011;4587;51.434;6.788;2022-12-07T05:44:41;16.43;;;11.20;;
9102;SDS011;4587;51.434;6.788;2022-12-07T05:47:09;14.80;;;10.40;;
9102;SDS011;4587;51.434;6.788;2022-12-07T05:49:35;15.67;;;10.47;;
9102;SDS011;4587;51.434;6.788;2022-12-07T05:52:00;12.60;;;10.90;;
9102;SDS011;4587;51.434;6.788;2022-12-07T05:54:27;15.03;;;10.40;;
9102;SDS011;4587;51.434;6.788;2022-12-07T05:56:52;20.53;;;11.10;;
9102;SDS011;4587;51.434;6.788;2022-12-07T05:59:18;15.97;;;10.60;;
9102;SDS011;4587;51.434;6.788;2022-12-07T06:02:11;13.50;;;10.37;;
9102;SDS011;4587;51.434;6.788;2022-12-07T06:04:39;14.83;;;10.80;;
9102;SDS011;4587;51.434;6.788;2022-12-07T06:07:07;14.17;;;10.47;;
9102;SDS011;4587;51.434;6.788;2022-12-07T06:09:33;14.13;;;10.13;;
9102;SDS011;4587;51.434;6.788;2022-12-07T06:11:59;12.67;;;10.30;;
9102;SDS011;4587;51.434;6.788;2022-12-07T06:14:44;13.67;;;10.67;;
9102;SDS011;4587;51.434;6.788;2022-12-07T06:17:10;15.53;;;10.43;;
9102;SDS011;4587;51.434;6.788;2022-12-07T06:19:37;14.20;;;10.97;;
9102;SDS011;4587;51.434;6.788;2022-12-07T06:22:03;16.67;;;10.30;;
9102;SDS011;4587;51.434;6.788;2022-12-07T06:24:29;18.27;;;10.93;;
9102;SDS011;4587;51.434;6.788;2022-12-07T06:26:56;13.87;;;11.03;;
9102;SDS011;4587;51.434;6.788;2022-12-07T06:29:21;17.80;;;10.53;;
9102;SDS011;4587;51.434;6.788;2022-12-07T06:31:47;12.00;;;10.13;;
9102;SDS011;4587;51.434;6.788;2022-12-07T06:34:15;15.57;;;10.17;;
9102;SDS011;4587;51.434;6.788;2022-12-07T06:36:42;16.97;;;10.83;;
9102;SDS011;4587;51.434;6.788;2022-12-07T06:39:08;13.97;;;10.33;;
9102;SDS011;4587;51.434;6.788;2022-12-07T06:41:39;15.93;;;10.43;;
9102;SDS011;4587;51.434;6.788;2022-12-07T06:44:05;15.50;;;10.87;;
9102;SDS011;4587;51.434;6.788;2022-12-07T06:46:31;14.20;;;10.17;;
9102;SDS011;4587;51.434;6.788;2022-12-07T06:48:57;18.80;;;10.53;;
9102;SDS011;4587;51.434;6.788;2022-12-07T06:51:22;16.90;;;10.60;;
9102;SDS011;4587;51.434;6.788;2022-12-07T06:53:48;14.97;;;10.47;;
9102;SDS011;4587;51.434;6.788;2022-12-07T06:56:14;15.07;;;10.13;;
9102;SDS011;4587;51.434;6.788;2022-12-07T06:58:39;15.43;;;10.13;;
9102;SDS011;4587;51.434;6.788;2022-12-07T07:01:09;14.03;;;10.17;;
9102;SDS011;4587;51.434;6.788;2022-12-07T07:03:38;15.07;;;10.07;;
9102;SDS011;4587;51.434;6.788;2022-12-07T07:06:04;15.87;;;10.53;;
9102;SDS011;4587;51.434;6.788;2022-12-07T07:08:32;14.07;;;10.50;;
9102;SDS011;4587;51.434;6.788;2022-12-07T07:10:58;13.10;;;10.27;;
9102;SDS011;4587;51.434;6.788;2022-12-07T07:13:23;19.03;;;11.30;;
9102;SDS011;4587;51.434;6.788;2022-12-07T07:15:49;14.87;;;10.57;;
9102;SDS011;4587;51.434;6.788;2022-12-07T07:18:15;14.93;;;11.00;;
9102;SDS011;4587;51.434;6.788;2022-12-07T07:20:41;17.47;;;11.20;;
9102;SDS011;4587;51.434;6.788;2022-12-07T07:23:06;14.30;;;10.80;;
9102;SDS011;4587;51.434;6.788;2022-12-07T07:25:32;15.73;;;11.00;;
9102;SDS011;4587;51.434;6.788;2022-12-07T07:27:58;15.47;;;11.17;;
9102;SDS011;4587;51.434;6.788;2022-12-07T07:30:24;13.73;;;10.83;;
9102;SDS011;4587;51.434;6.788;2022-12-07T07:32:50;17.40;;;10.40;;
9102;SDS011;4587;51.434;6.788;2022-12-07T07:35:16;15.30;;;10.70;;
9102;SDS011;4587;51.434;6.788;2022-12-07T07:37:41;14.60;;;10.70;;
9102;SDS011;4587;51.434;6.788;2022-12-07T07:40:07;14.03;;;10.53;;
9102;SDS011;4587;51.434;6.788;2022-12-07T07:42:34;16.47;;;10.83;;
9102;SDS011;4587;51.434;6.788;2022-12-07T07:45:00;17.53;;;11.03;;
9102;SDS011;4587;51.434;6.788;2022-12-07T07:47:25;13.97;;;10.40;;
9102;SDS011;4587;51.434;6.788;2022-12-07T07:49:51;11.93;;;10.30;;
9102;SDS011;4587;51.434;6.788;2022-12-07T07:52:16;14.70;;;9.80;;
9102;SDS011;4587;51.434;6.788;2022-12-07T07:54:42;13.97;;;9.90;;
9102;SDS011;4587;51.434;6.788;2022-12-07T07:57:07;14.90;;;9.77;;
9102;SDS011;4587;51.434;6.788;2022-12-07T07:59:33;14.83;;;9.97;;
9102;SDS011;4587;51.434;6.788;2022-12-07T08:01:58;14.70;;;10.67;;
9102;SDS011;4587;51.434;6.788;2022-12-07T08:04:24;11.93;;;9.80;;
9102;SDS011;4587;51.434;6.788;2022-12-07T08:06:49;13.13;;;10.50;;
9102;SDS011;4587;51.434;6.788;2022-12-07T08:09:15;13.07;;;9.90;;
9102;SDS011;4587;51.434;6.788;2022-12-07T08:11:40;14.13;;;9.80;;
9102;SDS011;4587;51.434;6.788;2022-12-07T08:14:06;12.03;;;9.47;;
9102;SDS011;4587;51.434;6.788;2022-12-07T08:16:32;13.07;;;9.47;;
9102;SDS011;4587;51.434;6.788;2022-12-07T08:18:57;11.50;;;9.47;;
9102;SDS011;4587;51.434;6.788;2022-12-07T08:21:23;15.63;;;8.87;;
9102;SDS011;4587;51.434;6.788;2022-12-07T08:23:48;11.73;;;9.37;;
9102;SDS011;4587;51.434;6.788;2022-12-07T08:26:15;13.57;;;9.80;;
9102;SDS011;4587;51.434;6.788;2022-12-07T08:28:41;14.57;;;9.17;;
9102;SDS011;4587;51.434;6.788;2022-12-07T08:31:09;13.00;;;9.00;;
9102;SDS011;4587;51.434;6.788;2022-12-07T08:33:40;11.47;;;9.07;;
9102;SDS011;4587;51.434;6.788;2022-12-07T08:36:07;15.60;;;9.33;;
9102;SDS011;4587;51.434;6.788;2022-12-07T08:38:36;11.57;;;9.43;;
9102;SDS011;4587;51.434;6.788;2022-12-07T08:41:02;13.97;;;8.77;;
9102;SDS011;4587;51.434;6.788;2022-12-07T08:43:28;12.30;;;8.60;;
9102;SDS011;4587;51.434;6.788;2022-12-07T08:46:09;11.53;;;8.63;;
9102;SDS011;4587;51.434;6.788;2022-12-07T08:48:36;16.30;;;8.93;;
9102;SDS011;4587;51.434;6.788;2022-12-07T08:51:05;14.70;;;9.00;;
9102;SDS011;4587;51.434;6.788;2022-12-07T08:53:30;13.13;;;8.50;;
9102;SDS011;4587;51.434;6.788;2022-12-07T08:55:57;13.73;;;9.33;;
9102;SDS011;4587;51.434;6.788;2022-12-07T08:58:23;15.83;;;8.70;;
9102;SDS011;4587;51.434;6.788;2022-12-07T09:00:49;18.30;;;8.67;;
9102;SDS011;4587;51.434;6.788;2022-12-07T09:03:15;12.33;;;8.23;;
9102;SDS011;4587;51.434;6.788;2022-12-07T09:05:40;11.03;;;8.53;;
9102;SDS011;4587;51.434;6.788;2022-12-07T09:08:06;11.83;;;8.40;;
9102;SDS011;4587;51.434;6.788;2022-12-07T09:10:32;13.43;;;8.40;;
9102;SDS011;4587;51.434;6.788;2022-12-07T09:12:58;13.47;;;8.57;;
9102;SDS011;4587;51.434;6.788;2022-12-07T09:15:25;14.10;;;9.47;;
9102;SDS011;4587;51.434;6.788;2022-12-07T09:17:54;12.37;;;8.57;;
9102;SDS011;4587;51.434;6.788;2022-12-07T09:20:20;12.20;;;8.60;;
9102;SDS011;4587;51.434;6.788;2022-12-07T09:22:46;16.93;;;8.70;;
9102;SDS011;4587;51.434;6.788;2022-12-07T09:25:12;11.43;;;8.30;;
9102;SDS011;4587;51.434;6.788;2022-12-07T09:27:37;10.33;;;7.50;;
9102;SDS011;4587;51.434;6.788;2022-12-07T09:30:03;10.40;;;7.50;;
9102;SDS011;4587;51.434;6.788;2022-12-07T09:32:29;12.63;;;7.70;;
9102;SDS011;4587;51.434;6.788;2022-12-07T09:34:55;12.67;;;7.57;;
9102;SDS011;4587;51.434;6.788;2022-12-07T09:37:21;11.43;;;7.03;;
9102;SDS011;4587;51.434;6.788;2022-12-07T09:39:47;9.60;;;7.47;;
9102;SDS011;4587;51.434;6.788;2022-12-07T09:42:21;14.07;;;7.30;;
9102;SDS011;4587;51.434;6.788;2022-12-07T09:44:49;10.23;;;6.63;;
9102;SDS011;4587;51.434;6.788;2022-12-07T09:47:14;10.23;;;7.00;;
9102;SDS011;4587;51.434;6.788;2022-12-07T09:49:40;10.70;;;7.40;;
9102;SDS011;4587;51.434;6.788;2022-12-07T09:54:38;10.93;;;6.73;;
9102;SDS011;4587;51.434;6.788;2022-12-07T09:57:08;11.93;;;6.97;;
9102;SDS011;4587;51.434;6.788;2022-12-07T09:59:37;9.90;;;6.80;;
9102;SDS011;4587;51.434;6.788;2022-12-07T10:05:07;11.23;;;6.70;;
9102;SDS011;4587;51.434;6.788;2022-12-07T10:07:37;9.87;;;6.47;;
9102;SDS011;4587;51.434;6.788;2022-12-07T10:10:03;13.33;;;6.57;;
9102;SDS011;4587;51.434;6.788;2022-12-07T10:12:52;9.17;;;6.00;;
9102;SDS011;4587;51.434;6.788;2022-12-07T10:18:20;10.57;;;5.90;;
9102;SDS011;4587;51.434;6.788;2022-12-07T10:20:59;11.30;;;5.67;;
9102;SDS011;4587;51.434;6.788;2022-12-07T10:23:32;14.40;;;5.67;;
9102;SDS011;4587;51.434;6.788;2022-12-07T10:25:58;14.40;;;6.00;;
9102;SDS011;4587;51.434;6.788;2022-12-07T10:28:27;12.27;;;4.73;;
9102;SDS011;4587;51.434;6.788;2022-12-07T10:31:01;9.00;;;4.83;;
9102;SDS011;4587;51.434;6.788;2022-12-07T10:33:48;14.13;;;5.20;;
9102;SDS011;4587;51.434;6.788;2022-12-07T10:36:20;11.40;;;4.70;;
9102;SDS011;4587;51.434;6.788;2022-12-07T10:38:50;9.30;;;4.80;;
9102;SDS011;4587;51.434;6.788;2022-12-07T10:41:16;8.77;;;4.20;;
9102;SDS011;4587;51.434;6.788;2022-12-07T10:43:49;12.70;;;5.13;;
9102;SDS011;4587;51.434;6.788;2022-12-07T10:48:52;11.50;;;5.13;;
9102;SDS011;4587;51.434;6.788;2022-12-07T10:51:46;10.23;;;5.27;;
9102;SDS011;4587;51.434;6.788;2022-12-07T10:57:18;9.23;;;4.93;;
9102;SDS011;4587;51.434;6.788;2022-12-07T10:59:57;6.50;;;4.50;;
9102;SDS011;4587;51.434;6.788;2022-12-07T11:02:37;7.90;;;4.33;;
9102;SDS011;4587;51.434;6.788;2022-12-07T11:08:01;8.27;;;4.20;;
9102;SDS011;4587;51.434;6.788;2022-12-07T11:13:37;7.03;;;4.60;;
9102;SDS011;4587;51.434;6.788;2022-12-07T11:21:53;7.23;;;4.00;;
9102;SDS011;4587;51.434;6.788;2022-12-07T11:27:22;8.97;;;4.10;;
9102;SDS011;4587;51.434;6.788;2022-12-07T11:32:51;13.27;;;10.73;;
9102;SDS011;4587;51.434;6.788;2022-12-07T11:38:15;9.70;;;5.03;;
9102;SDS011;4587;51.434;6.788;2022-12-07T11:40:46;8.67;;;3.90;;
9102;SDS011;4587;51.434;6.788;2022-12-07T11:45:47;9.80;;;3.97;;
9102;SDS011;4587;51.434;6.788;2022-12-07T11:48:28;12.43;;;4.63;;
9102;SDS011;4587;51.434;6.788;2022-12-07T11:51:15;7.77;;;4.27;;
9102;SDS011;4587;51.434;6.788;2022-12-07T11:53:56;13.20;;;4.30;;
9102;SDS011;4587;51.434;6.788;2022-12-07T11:56:26;10.80;;;4.30;;
9102;SDS011;4587;51.434;6.788;2022-12-07T12:02:00;9.57;;;4.17;;
9102;SDS011;4587;51.434;6.788;2022-12-07T12:04:51;12.17;;;4.20;;
9102;SDS011;4587;51.434;6.788;2022-12-07T12:07:24;7.47;;;3.77;;
9102;SDS011;4587;51.434;6.788;2022-12-07T12:09:56;6.10;;;3.50;;
9102;SDS011;4587;51.434;6.788;2022-12-07T12:21:13;6.73;;;3.63;;
9102;SDS011;4587;51.434;6.788;2022-12-07T12:23:46;6.67;;;3.33;;
9102;SDS011;4587;51.434;6.788;2022-12-07T12:26:23;8.97;;;3.70;;
9102;SDS011;4587;51.434;6.788;2022-12-07T12:28:58;10.13;;;3.80;;
9102;SDS011;4587;51.434;6.788;2022-12-07T12:31:32;9.33;;;3.53;;
9102;SDS011;4587;51.434;6.788;2022-12-07T12:34:02;8.33;;;3.23;;
9102;SDS011;4587;51.434;6.788;2022-12-07T12:39:12;7.90;;;3.03;;
9102;SDS011;4587;51.434;6.788;2022-12-07T12:46:56;10.17;;;3.30;;
9102;SDS011;4587;51.434;6.788;2022-12-07T12:51:50;8.03;;;3.00;;
9102;SDS011;4587;51.434;6.788;2022-12-07T13:01:46;9.10;;;2.53;;
9102;SDS011;4587;51.434;6.788;2022-12-07T13:04:36;9.93;;;2.73;;
9102;SDS011;4587;51.434;6.788;2022-12-07T13:15:36;8.03;;;3.00;;
9102;SDS011;4587;51.434;6.788;2022-12-07T13:20:55;7.57;;;3.00;;
9102;SDS011;4587;51.434;6.788;2022-12-07T13:28:44;7.07;;;3.07;;
9102;SDS011;4587;51.434;6.788;2022-12-07T13:33:44;8.77;;;3.27;;
9102;SDS011;4587;51.434;6.788;2022-12-07T13:36:26;9.43;;;3.37;;
9102;SDS011;4587;51.434;6.788;2022-12-07T13:38:59;13.67;;;3.63;;
9102;SDS011;4587;51.434;6.788;2022-12-07T13:41:36;11.23;;;3.23;;
9102;SDS011;4587;51.434;6.788;2022-12-07T13:44:11;10.23;;;3.80;;
9102;SDS011;4587;51.434;6.788;2022-12-07T13:49:36;11.03;;;3.60;;
9102;SDS011;4587;51.434;6.788;2022-12-07T13:52:29;14.07;;;3.93;;
9102;SDS011;4587;51.434;6.788;2022-12-07T13:55:00;10.47;;;3.53;;
9102;SDS011;4587;51.434;6.788;2022-12-07T13:57:32;8.17;;;3.30;;
9102;SDS011;4587;51.434;6.788;2022-12-07T14:00:00;7.60;;;3.47;;
9102;SDS011;4587;51.434;6.788;2022-12-07T14:02:29;9.73;;;3.23;;
9102;SDS011;4587;51.434;6.788;2022-12-07T14:05:43;11.20;;;3.50;;
9102;SDS011;4587;51.434;6.788;2022-12-07T14:07:58;8.17;;;2.87;;
9102;SDS011;4587;51.434;6.788;2022-12-07T14:10:32;9.63;;;2.97;;
9102;SDS011;4587;51.434;6.788;2022-12-07T14:15:44;6.23;;;2.50;;
9102;SDS011;4587;51.434;6.788;2022-12-07T14:18:29;8.60;;;2.63;;
9102;SDS011;4587;51.434;6.788;2022-12-07T14:21:33;6.17;;;2.40;;
9102;SDS011;4587;51.434;6.788;2022-12-07T14:24:14;11.43;;;2.93;;
9102;SDS011;4587;51.434;6.788;2022-12-07T14:26:42;8.83;;;2.70;;
9102;SDS011;4587;51.434;6.788;2022-12-07T14:29:20;7.57;;;2.60;;
9102;SDS011;4587;51.434;6.788;2022-12-07T14:31:47;9.23;;;2.80;;
9102;SDS011;4587;51.434;6.788;2022-12-07T14:34:13;11.47;;;2.40;;
9102;SDS011;4587;51.434;6.788;2022-12-07T14:36:38;5.47;;;2.40;;
9102;SDS011;4587;51.434;6.788;2022-12-07T14:39:04;6.93;;;2.47;;
9102;SDS011;4587;51.434;6.788;2022-12-07T14:41:29;6.37;;;2.50;;
9102;SDS011;4587;51.434;6.788;2022-12-07T14:44:13;7.90;;;2.83;;
9102;SDS011;4587;51.434;6.788;2022-12-07T14:46:39;8.23;;;2.50;;
9102;SDS011;4587;51.434;6.788;2022-12-07T14:49:05;7.60;;;2.90;;
9102;SDS011;4587;51.434;6.788;2022-12-07T14:51:30;5.87;;;2.70;;
9102;SDS011;4587;51.434;6.788;2022-12-07T14:53:56;11.30;;;2.80;;
9102;SDS011;4587;51.434;6.788;2022-12-07T14:56:22;6.33;;;2.33;;
9102;SDS011;4587;51.434;6.788;2022-12-07T14:58:48;3.77;;;2.20;;
9102;SDS011;4587;51.434;6.788;2022-12-07T15:01:14;8.83;;;2.80;;
9102;SDS011;4587;51.434;6.788;2022-12-07T15:03:39;6.90;;;2.80;;
9102;SDS011;4587;51.434;6.788;2022-12-07T15:06:05;9.67;;;3.23;;
9102;SDS011;4587;51.434;6.788;2022-12-07T15:08:31;6.77;;;2.97;;
9102;SDS011;4587;51.434;6.788;2022-12-07T15:10:57;6.37;;;2.70;;
9102;SDS011;4587;51.434;6.788;2022-12-07T15:13:23;6.00;;;2.50;;
9102;SDS011;4587;51.434;6.788;2022-12-07T15:16:09;4.47;;;2.47;;
9102;SDS011;4587;51.434;6.788;2022-12-07T15:18:37;10.23;;;3.17;;
9102;SDS011;4587;51.434;6.788;2022-12-07T15:21:03;6.93;;;2.83;;
9102;SDS011;4587;51.434;6.788;2022-12-07T15:23:28;9.70;;;2.77;;
9102;SDS011;4587;51.434;6.788;2022-12-07T15:25:54;7.33;;;3.03;;
9102;SDS011;4587;51.434;6.788;2022-12-07T15:28:19;10.07;;;3.17;;
9102;SDS011;4587;51.434;6.788;2022-12-07T15:30:45;6.47;;;2.97;;
9102;SDS011;4587;51.434;6.788;2022-12-07T15:33:11;10.40;;;4.20;;
9102;SDS011;4587;51.434;6.788;2022-12-07T15:35:39;6.33;;;3.60;;
9102;SDS011;4587;51.434;6.788;2022-12-07T15:38:05;9.83;;;3.90;;
9102;SDS011;4587;51.434;6.788;2022-12-07T15:40:30;7.03;;;3.57;;
9102;SDS011;4587;51.434;6.788;2022-12-07T15:42:56;8.53;;;3.57;;
9102;SDS011;4587;51.434;6.788;2022-12-07T15:45:22;12.00;;;4.53;;
9102;SDS011;4587;51.434;6.788;2022-12-07T15:47:47;11.47;;;4.77;;
9102;SDS011;4587;51.434;6.788;2022-12-07T15:50:14;12.00;;;4.73;;
9102;SDS011;4587;51.434;6.788;2022-12-07T15:52:41;10.60;;;4.80;;
9102;SDS011;4587;51.434;6.788;2022-12-07T15:55:07;9.40;;;4.50;;
9102;SDS011;4587;51.434;6.788;2022-12-07T15:57:34;10.10;;;4.53;;
9102;SDS011;4587;51.434;6.788;2022-12-07T16:00:02;11.30;;;4.80;;
9102;SDS011;4587;51.434;6.788;2022-12-07T16:02:28;16.17;;;5.47;;
9102;SDS011;4587;51.434;6.788;2022-12-07T16:04:54;13.00;;;4.53;;
9102;SDS011;4587;51.434;6.788;2022-12-07T16:07:19;12.20;;;4.63;;
9102;SDS011;4587;51.434;6.788;2022-12-07T16:09:45;11.87;;;4.20;;
9102;SDS011;4587;51.434;6.788;2022-12-07T16:12:12;11.83;;;4.90;;
9102;SDS011;4587;51.434;6.788;2022-12-07T16:14:39;10.17;;;5.30;;
9102;SDS011;4587;51.434;6.788;2022-12-07T16:17:05;14.03;;;5.57;;
9102;SDS011;4587;51.434;6.788;2022-12-07T16:19:32;9.00;;;4.70;;
9102;SDS011;4587;51.434;6.788;2022-12-07T16:21:58;10.10;;;4.93;;
9102;SDS011;4587;51.434;6.788;2022-12-07T16:24:24;13.50;;;5.40;;
9102;SDS011;4587;51.434;6.788;2022-12-07T16:26:50;16.63;;;9.37;;
9102;SDS011;4587;51.434;6.788;2022-12-07T16:29:17;19.27;;;9.83;;
9102;SDS011;4587;51.434;6.788;2022-12-07T16:31:44;11.77;;;6.27;;
9102;SDS011;4587;51.434;6.788;2022-12-07T16:34:10;12.97;;;5.30;;
9102;SDS011;4587;51.434;6.788;2022-12-07T16:36:36;13.20;;;5.10;;
9102;SDS011;4587;51.434;6.788;2022-12-07T16:39:02;9.90;;;4.10;;
9102;SDS011;4587;51.434;6.788;2022-12-07T16:41:28;9.87;;;4.30;;
9102;SDS011;4587;51.434;6.788;2022-12-07T16:43:53;9.53;;;4.00;;
9102;SDS011;4587;51.434;6.788;2022-12-07T16:46:19;8.33;;;3.67;;
9102;SDS011;4587;51.434;6.788;2022-12-07T16:48:45;10.17;;;4.00;;
9102;SDS011;4587;51.434;6.788;2022-12-07T16:51:11;7.87;;;3.20;;
9102;SDS011;4587;51.434;6.788;2022-12-07T16:53:39;6.47;;;3.50;;
9102;SDS011;4587;51.434;6.788;2022-12-07T16:56:09;11.47;;;2.90;;
9102;SDS011;4587;51.434;6.788;2022-12-07T16:58:36;8.37;;;3.17;;
9102;SDS011;4587;51.434;6.788;2022-12-07T17:01:12;6.33;;;3.00;;
9102;SDS011;4587;51.434;6.788;2022-12-07T17:03:39;4.77;;;2.63;;